Time;durP1;ratioP1;P1;durP2;ratioP2;P2;SDS_P1;SDS_P2;PMS_P1;PMS_P2;Temp;Humidity;BMP_temperature;BMP_pressure;BME280_temperature;BME280_humidity;BME280_pressure;Samples;Min_cycle;Max_cycle;Signal;HPM_P1;HPM_P2
2023/07/25 06:44:26;;;;;;;;;4.00;3.00;;;;;;;;2;219533374;219533374;-93
2023/07/25 07:07:17;;;;;;;;;;;;;;;;;;2190100;24;174401566;-88
2023/07/25 07:15:14;;;;;;;;;;;;;;;;;;2;261082602;261082602;-89
2023/07/25 07:18:55;;;;;;;;;0.50;0.50;;;;;;;;2;163144424;163144424;-89
2023/07/25 07:27:11;;;;;;;;;0.00;0.00;;;;;;;;2;261082165;261082165;-89
2023/07/25 07:35:26;;;;;;;;;1.00;1.00;;;;;;;;2;216073539;216073539;-89
2023/07/25 07:43:42;;;;;;;;;1.00;1.00;;;;;;;;2;261099502;261099502;-90
2023/07/25 07:51:57;;;;;;;;;1.00;1.00;;;;;;;;2;216082583;216082583;-92
2023/07/25 07:54:22;;;;;;;;;0.33;0.33;;;;;;;;1093771;29;57738211;-90
2023/07/25 07:58:27;;;;;;;;;;;;;;;;;;3359340;29;89707700;-90
2023/07/25 08:05:38;;;;;;;;;0.50;0.50;;;;;;;;325061;29;266106110;-90
2023/07/25 08:08:04;;;;;;;;;0.50;0.50;;;;;;;;1016364;29;60255265;-90
2023/07/25 08:11:50;;;;;;;;;;;;;;;;;;4073186;29;101220281;-90
2023/07/25 08:14:15;;;;;;;;;0.00;0.00;;;;;;;;4374795;29;5703080;-90
2023/07/25 08:16:41;;;;;;;;;0.00;0.00;;;;;;;;4788164;29;29521;-90
2023/07/25 08:19:06;;;;;;;;;0.00;0.00;;;;;;;;4777193;29;28484;-89
2023/07/25 08:21:31;;;;;;;;;0.00;0.00;;;;;;;;3138927;29;28495178;-89
2023/07/25 08:23:56;;;;;;;;;1.00;0.00;;;;;;;;4789368;29;28443;-89
2023/07/25 08:26:21;;;;;;;;;0.00;0.00;;;;;;;;4788752;29;28472;-89
2023/07/25 08:28:47;;;;;;;;;0.00;0.00;;;;;;;;4788122;29;28419;-90
2023/07/25 08:31:12;;;;;;;;;0.00;0.00;;;;;;;;4789230;29;28504;-89
2023/07/25 08:33:37;;;;;;;;;0.00;0.00;;;;;;;;4784282;29;28491;-89
2023/07/25 08:36:03;;;;;;;;;0.67;0.67;;;;;;;;4784235;29;28604;-89
2023/07/25 08:38:28;;;;;;;;;1.00;1.00;;;;;;;;4789664;29;28665;-89
2023/07/25 08:41:02;;;;;;;;;0.00;0.00;;;;;;;;4785888;29;28686;-89
2023/07/25 08:44:55;;;;;;;;;;;;;;;;;;495728;29;145605456;-89
2023/07/25 08:54:57;;;;;;;;;2.00;2.00;;;;;;;;335791;29;210870015;-89
2023/07/25 09:03:04;;;;;;;;;;;;;;;;;;2;252991799;252991799;-89
2023/07/25 09:11:20;;;;;;;;;0.00;0.00;;;;;;;;2;216066958;216066958;-88
2023/07/25 09:19:34;;;;;;;;;1.50;1.50;;;;;;;;2;261093333;261093333;-88
2023/07/25 09:26:05;;;;;;;;;0.00;0.00;;;;;;;;2;216066002;216066002;-88
2023/07/25 09:36:35;;;;;;;;;0.00;0.00;;;;;;;;329045;29;260964559;-88
2023/07/25 09:43:46;;;;;;;;;;;;;;;;;;2;175712834;175712834;-88
2023/07/25 09:52:00;;;;;;;;;0.00;0.00;;;;;;;;3;132141916;191828614;-94
2023/07/25 09:59:56;;;;;;;;;;;;;;;;;;647133;29;228736051;-95
2023/07/25 10:02:48;;;;;;;;;0.00;0.00;;;;;;;;3;62843619;85345164;-95
2023/07/25 10:07:32;;;;;;;;;0.00;0.00;;;;;;;;4;50679973;89076047;-95
2023/07/25 10:13:36;;;;;;;;;;;;;;;;;;162326;29;95716033;-95
2023/07/25 10:17:14;;;;;;;;;0.50;0.50;;;;;;;;4;9933511;105279857;-96
2023/07/25 10:22:34;;;;;;;;;0.50;0.50;;;;;;;;303382;29;190618298;-96
2023/07/25 10:28:25;;;;;;;;;0.00;0.00;;;;;;;;152428;29;86644161;-95
2023/07/25 10:33:25;;;;;;;;;;;;;;;;;;2;279080999;279080999;-92
2023/07/25 10:36:23;;;;;;;;;0.00;0.00;;;;;;;;566468;29;139315837;-93
2023/07/25 10:42:58;;;;;;;;;0.00;0.00;;;;;;;;164540;29;89626877;-96
2023/07/25 10:45:26;;;;;;;;;0.00;0.00;;;;;;;;409783;29;75032499;-96
2023/07/25 10:47:52;;;;;;;;;0.00;0.00;;;;;;;;4182365;29;10290481;-96
2023/07/25 10:50:19;;;;;;;;;0.00;0.00;;;;;;;;4785219;29;29110;-96
2023/07/25 10:52:47;;;;;;;;;0.00;0.00;;;;;;;;4784584;29;29522;-96
2023/07/25 10:55:15;;;;;;;;;0.00;0.00;;;;;;;;4783954;29;28778;-95
2023/07/25 10:57:40;;;;;;;;;0.00;0.00;;;;;;;;4782353;29;28807;-96
2023/07/25 11:00:10;;;;;;;;;0.00;0.00;;;;;;;;4783075;29;28349;-96
2023/07/25 11:02:36;;;;;;;;;0.00;0.00;;;;;;;;4788612;29;29991;-96
2023/07/25 11:05:14;;;;;;;;;0.00;0.00;;;;;;;;4785727;29;42510;-96
2023/07/25 11:07:45;;;;;;;;;0.00;0.00;;;;;;;;4744833;29;1173694;-96
2023/07/25 11:10:11;;;;;;;;;0.00;0.00;;;;;;;;4787562;29;44767;-96
2023/07/25 11:12:36;;;;;;;;;0.00;0.00;;;;;;;;4782110;29;45310;-96
2023/07/25 11:15:02;;;;;;;;;0.00;0.00;;;;;;;;4774488;29;45191;-96
2023/07/25 11:17:27;;;;;;;;;0.00;0.00;;;;;;;;4777044;29;45440;-96
2023/07/25 11:19:53;;;;;;;;;0.00;0.00;;;;;;;;4776251;29;45540;-96
2023/07/25 11:22:18;;;;;;;;;0.00;0.00;;;;;;;;4774737;29;47240;-96
2023/07/25 11:24:46;;;;;;;;;0.00;0.00;;;;;;;;4774427;29;45358;-96
2023/07/25 11:27:12;;;;;;;;;0.00;0.00;;;;;;;;4776771;29;45508;-96
2023/07/25 11:29:46;;;;;;;;;0.00;0.00;;;;;;;;4782055;29;45577;-96
2023/07/25 11:32:19;;;;;;;;;0.00;0.00;;;;;;;;4773646;29;47185;-96
2023/07/25 11:34:48;;;;;;;;;0.00;0.00;;;;;;;;4773062;29;45806;-96
2023/07/25 11:37:36;;;;;;;;;0.00;0.00;;;;;;;;4775990;29;45455;-96
2023/07/25 11:40:11;;;;;;;;;0.00;0.00;;;;;;;;4784850;29;45575;-95
2023/07/25 11:42:39;;;;;;;;;0.00;0.00;;;;;;;;4774011;29;45267;-96
2023/07/25 11:45:05;;;;;;;;;0.00;0.00;;;;;;;;4775094;29;45348;-96
2023/07/25 11:47:30;;;;;;;;;0.00;0.00;;;;;;;;4776057;29;45174;-96
2023/07/25 11:49:56;;;;;;;;;0.00;0.00;;;;;;;;4774680;29;45338;-96
2023/07/25 11:52:21;;;;;;;;;0.00;0.00;;;;;;;;4774549;29;46945;-96
2023/07/25 11:54:46;;;;;;;;;0.00;0.00;;;;;;;;4772727;29;45650;-96
2023/07/25 11:57:12;;;;;;;;;0.00;0.00;;;;;;;;4773077;29;45707;-95
2023/07/25 11:59:41;;;;;;;;;0.00;0.00;;;;;;;;4772960;29;45554;-94
2023/07/25 12:02:06;;;;;;;;;0.00;0.00;;;;;;;;4773748;29;45413;-95
2023/07/25 12:04:32;;;;;;;;;0.00;0.00;;;;;;;;4762486;29;45617;-96
2023/07/25 12:06:58;;;;;;;;;0.00;0.00;;;;;;;;4773130;29;45492;-95
2023/07/25 12:09:28;;;;;;;;;0.00;0.00;;;;;;;;4775278;29;45342;-96
2023/07/25 12:11:53;;;;;;;;;0.00;0.00;;;;;;;;4774455;29;45441;-92
2023/07/25 12:14:18;;;;;;;;;0.00;0.00;;;;;;;;4773116;29;45503;-92
2023/07/25 12:16:44;;;;;;;;;0.00;0.00;;;;;;;;4774353;29;45559;-94
2023/07/25 12:19:10;;;;;;;;;0.00;0.00;;;;;;;;4769534;29;45433;-91
2023/07/25 12:21:37;;;;;;;;;0.00;0.00;;;;;;;;4771488;29;46230;-91
2023/07/25 12:24:05;;;;;;;;;0.00;0.00;;;;;;;;4773687;29;45349;-91
2023/07/25 12:26:51;;;;;;;;;0.00;0.00;;;;;;;;4774254;29;46078;-91
2023/07/25 12:29:26;;;;;;;;;0.00;0.00;;;;;;;;4771550;29;45328;-92
2023/07/25 12:31:52;;;;;;;;;0.00;0.00;;;;;;;;4772197;29;46174;-92
2023/07/25 12:34:18;;;;;;;;;0.33;0.33;;;;;;;;4774204;29;45542;-91
2023/07/25 12:36:47;;;;;;;;;0.00;0.00;;;;;;;;4774267;29;45364;-91
2023/07/25 12:39:13;;;;;;;;;0.00;0.00;;;;;;;;4773662;29;45441;-91
2023/07/25 12:41:39;;;;;;;;;0.00;0.00;;;;;;;;4775492;29;45300;-90
2023/07/25 12:44:04;;;;;;;;;0.00;0.00;;;;;;;;4774247;29;45218;-90
2023/07/25 12:46:30;;;;;;;;;0.00;0.00;;;;;;;;4774137;29;45515;-91
2023/07/25 12:48:55;;;;;;;;;1.00;1.00;;;;;;;;4775250;29;45422;-92
2023/07/25 12:51:21;;;;;;;;;1.00;0.00;;;;;;;;4776254;29;45384;-91
2023/07/25 12:53:46;;;;;;;;;0.00;0.00;;;;;;;;4775894;29;45184;-91
2023/07/25 12:56:11;;;;;;;;;0.00;0.00;;;;;;;;4774854;29;45550;-91
2023/07/25 12:58:36;;;;;;;;;0.00;0.00;;;;;;;;4776223;29;45538;-91
